EDT,Max TemperatureF,Mean TemperatureF,Min TemperatureF,Max Dew PointF,MeanDew PointF,Min DewpointF,Max Humidity, Mean Humidity, Min Humidity, Max Sea Level PressureIn, Mean Sea Level PressureIn, Min Sea Level PressureIn, Max VisibilityMiles, Mean VisibilityMiles, Min VisibilityMiles, Max Wind SpeedMPH, Mean Wind SpeedMPH, Max Gust SpeedMPH,PrecipitationIn, CloudCover, Events, WindDirDegrees
2010-10-1,85,82,78,71,68,65,79,67,55,29.81,29.78,29.74,10,10,10,13,7,16,0.00,2,,328
2010-10-2,86,80,73,71,69,66,87,72,57,29.83,29.80,29.77,10,10,10,12,2,18,T,1,,331
2010-10-3,86,83,80,72,69,66,74,65,55,29.92,29.86,29.81,10,10,10,17,9,23,0.00,0,,334
2010-10-4,84,81,78,70,66,62,74,61,48,29.99,29.94,29.88,10,10,10,18,11,25,0.00,3,,21
2010-10-5,83,80,77,70,67,66,74,66,58,30.01,29.96,29.92,10,10,10,21,14,28,0.00,1,,15
2010-10-6,83,80,76,69,66,60,82,68,54,29.98,29.94,29.90,10,10,10,23,15,30,0.00,2,,23
2010-10-7,81,77,73,67,64,60,73,64,54,30.01,29.97,29.94,10,10,10,22,14,29,0.00,1,,22
2010-10-8,82,79,75,67,65,63,74,66,58,30.06,30.01,29.98,10,10,10,18,10,25,0.00,1,,33
2010-10-9,82,78,73,70,66,64,87,73,58,30.06,30.02,29.99,10,10,10,16,6,24,0.00,0,,23
2010-10-10,83,79,74,69,66,61,87,69,51,30.03,30.00,29.95,10,10,10,13,6,28,T,1,,38
2010-10-11,84,80,75,72,70,68,82,72,58,30.02,29.98,29.94,10,10,10,15,8,20,0.00,2,,70
2010-10-12,80,77,73,75,74,73,100,90,79,29.99,29.95,29.91,10,7,2,18,8,23,0.89,6,Rain,76
2010-10-13,82,78,74,77,76,73,100,90,79,30.00,29.96,29.94,10,9,2,9,5,12,0.51,4,Rain-Thunderstorm,45
2010-10-14,77,75,73,76,74,73,100,97,94,29.97,29.93,29.86,10,8,1,17,3,20,1.40,5,Rain-Thunderstorm,25
2010-10-15,82,78,74,73,67,62,100,77,54,30.01,29.94,29.90,10,10,10,17,11,24,0.00,3,,2
2010-10-16,81,77,72,66,61,55,84,63,42,30.09,30.03,29.98,10,10,10,16,9,22,0.00,0,,18
2010-10-17,82,78,73,68,65,61,79,65,51,30.12,30.06,30.01,10,10,10,15,7,18,0.00,0,,38
2010-10-18,83,79,75,71,69,68,87,75,63,30.05,29.99,29.94,10,10,10,16,9,22,0.00,3,,67
2010-10-19,85,80,75,74,72,68,87,78,69,29.99,29.94,29.89,10,10,10,14,7,17,0.00,1,,72
2010-10-20,85,81,77,75,74,70,94,82,70,29.96,29.92,29.88,10,10,10,10,5,14,0.00,1,,37
2010-10-21,82,79,76,72,69,67,82,72,62,29.99,29.94,29.91,10,10,10,17,10,23,0.00,1,,6
2010-10-22,84,80,76,73,72,69,94,80,65,30.04,29.99,29.93,10,10,10,16,9,22,0.00,1,,41
2010-10-23,85,80,74,75,74,72,94,84,74,30.08,30.04,29.99,10,9,1,21,12,28,0.30,3,Rain,75
2010-10-24,85,82,79,76,74,73,85,78,70,30.07,30.03,29.99,10,10,10,23,13,35,0.00,1,,91
2010-10-25,86,83,79,76,75,73,85,78,70,30.02,29.96,29.92,10,10,6,21,14,26,0.02,1,Rain,116
2010-10-26,85,80,75,78,75,72,94,87,79,30.01,29.95,29.91,10,6,1,25,12,32,3.44,6,Rain-Thunderstorm,144
2010-10-27,86,82,78,77,76,75,85,80,74,30.09,30.03,29.98,10,10,5,18,10,23,0.01,1,Rain,104
2010-10-28,84,81,78,76,74,71,91,81,70,30.11,30.05,30.00,10,10,10,16,6,20,0.00,2,,85
2010-10-29,86,81,76,75,73,69,85,73,61,30.04,30.01,29.97,10,10,10,13,6,18,0.01,2,Rain,3
2010-10-30,86,82,77,74,73,72,85,75,65,30.08,30.03,30.00,10,10,10,16,9,21,0.00,3,,71
2010-10-31,87,82,77,74,73,71,85,75,65,30.10,30.04,30.00,10,10,10,16,4,18,T,2,Rain,69